sensor_id;sensor_type;location;lat;lon;timestamp;P1;durP1;ratioP1;P2;durP2;ratioP2
46589;SDS011;32313;48.722;9.362;2023-04-28T00:01:09;10.17;;;8.80;;
46589;SDS011;32313;48.722;9.362;2023-04-28T00:03:36;9.67;;;8.87;;
46589;SDS011;32313;48.722;9.362;2023-04-28T00:06:01;10.30;;;9.37;;
46589;SDS011;32313;48.722;9.362;2023-04-28T00:08:28;9.60;;;8.50;;
46589;SDS011;32313;48.722;9.362;2023-04-28T00:10:54;10.53;;;9.53;;
46589;SDS011;32313;48.722;9.362;2023-04-28T00:13:19;11.27;;;9.20;;
46589;SDS011;32313;48.722;9.362;2023-04-28T00:15:45;9.40;;;8.50;;
46589;SDS011;32313;48.722;9.362;2023-04-28T00:18:11;10.40;;;9.37;;
46589;SDS011;32313;48.722;9.362;2023-04-28T00:20:36;10.47;;;9.37;;
46589;SDS011;32313;48.722;9.362;2023-04-28T00:23:02;9.30;;;8.33;;
46589;SDS011;32313;48.722;9.362;2023-04-28T00:25:28;9.07;;;8.17;;
46589;SDS011;32313;48.722;9.362;2023-04-28T00:27:53;9.60;;;8.33;;
46589;SDS011;32313;48.722;9.362;2023-04-28T00:30:19;10.10;;;8.23;;
46589;SDS011;32313;48.722;9.362;2023-04-28T00:32:45;11.57;;;8.87;;
46589;SDS011;32313;48.722;9.362;2023-04-28T00:35:10;9.53;;;8.63;;
46589;SDS011;32313;48.722;9.362;2023-04-28T00:37:36;9.30;;;8.30;;
46589;SDS011;32313;48.722;9.362;2023-04-28T00:40:03;13.80;;;9.77;;
46589;SDS011;32313;48.722;9.362;2023-04-28T00:42:29;9.07;;;8.13;;
46589;SDS011;32313;48.722;9.362;2023-04-28T00:44:55;8.93;;;8.13;;
46589;SDS011;32313;48.722;9.362;2023-04-28T00:47:21;10.33;;;9.23;;
46589;SDS011;32313;48.722;9.362;2023-04-28T00:49:47;9.23;;;8.43;;
46589;SDS011;32313;48.722;9.362;2023-04-28T00:52:13;10.73;;;8.47;;
46589;SDS011;32313;48.722;9.362;2023-04-28T00:54:39;10.90;;;8.47;;
46589;SDS011;32313;48.722;9.362;2023-04-28T00:57:07;10.03;;;9.07;;
46589;SDS011;32313;48.722;9.362;2023-04-28T00:59:34;9.70;;;8.00;;
46589;SDS011;32313;48.722;9.362;2023-04-28T01:02:00;9.70;;;8.80;;
46589;SDS011;32313;48.722;9.362;2023-04-28T01:04:28;9.13;;;8.17;;
46589;SDS011;32313;48.722;9.362;2023-04-28T01:06:54;10.17;;;8.97;;
46589;SDS011;32313;48.722;9.362;2023-04-28T01:09:21;10.17;;;9.27;;
46589;SDS011;32313;48.722;9.362;2023-04-28T01:11:49;9.83;;;8.77;;
46589;SDS011;32313;48.722;9.362;2023-04-28T01:14:27;9.77;;;8.83;;
46589;SDS011;32313;48.722;9.362;2023-04-28T01:16:53;11.03;;;9.83;;
46589;SDS011;32313;48.722;9.362;2023-04-28T01:19:20;9.80;;;8.97;;
46589;SDS011;32313;48.722;9.362;2023-04-28T01:21:50;10.07;;;9.07;;
46589;SDS011;32313;48.722;9.362;2023-04-28T01:24:20;10.20;;;9.07;;
46589;SDS011;32313;48.722;9.362;2023-04-28T01:26:46;9.57;;;8.67;;
46589;SDS011;32313;48.722;9.362;2023-04-28T01:29:12;10.67;;;9.67;;
46589;SDS011;32313;48.722;9.362;2023-04-28T01:31:38;12.20;;;10.13;;
46589;SDS011;32313;48.722;9.362;2023-04-28T01:34:03;12.77;;;9.87;;
46589;SDS011;32313;48.722;9.362;2023-04-28T01:36:29;10.10;;;9.10;;
46589;SDS011;32313;48.722;9.362;2023-04-28T01:38:55;10.47;;;9.37;;
46589;SDS011;32313;48.722;9.362;2023-04-28T01:41:21;10.27;;;9.00;;
46589;SDS011;32313;48.722;9.362;2023-04-28T01:43:47;10.83;;;9.80;;
46589;SDS011;32313;48.722;9.362;2023-04-28T01:46:12;13.27;;;9.90;;
46589;SDS011;32313;48.722;9.362;2023-04-28T01:48:38;12.77;;;10.43;;
46589;SDS011;32313;48.722;9.362;2023-04-28T01:51:04;10.47;;;8.57;;
46589;SDS011;32313;48.722;9.362;2023-04-28T01:53:30;10.97;;;9.87;;
46589;SDS011;32313;48.722;9.362;2023-04-28T01:55:56;12.30;;;9.13;;
46589;SDS011;32313;48.722;9.362;2023-04-28T01:58:23;9.17;;;8.27;;
46589;SDS011;32313;48.722;9.362;2023-04-28T02:00:49;13.13;;;9.20;;
46589;SDS011;32313;48.722;9.362;2023-04-28T02:03:16;13.37;;;8.83;;
46589;SDS011;32313;48.722;9.362;2023-04-28T02:05:42;10.80;;;9.30;;
46589;SDS011;32313;48.722;9.362;2023-04-28T02:08:08;10.37;;;8.90;;
46589;SDS011;32313;48.722;9.362;2023-04-28T02:10:33;9.23;;;8.33;;
46589;SDS011;32313;48.722;9.362;2023-04-28T02:12:59;9.87;;;8.87;;
46589;SDS011;32313;48.722;9.362;2023-04-28T02:15:25;11.77;;;9.70;;
46589;SDS011;32313;48.722;9.362;2023-04-28T02:17:51;10.13;;;9.03;;
46589;SDS011;32313;48.722;9.362;2023-04-28T02:20:17;9.80;;;8.67;;
46589;SDS011;32313;48.722;9.362;2023-04-28T02:22:43;9.40;;;8.50;;
46589;SDS011;32313;48.722;9.362;2023-04-28T02:25:09;9.40;;;8.60;;
46589;SDS011;32313;48.722;9.362;2023-04-28T02:27:36;10.37;;;8.57;;
46589;SDS011;32313;48.722;9.362;2023-04-28T02:30:05;10.00;;;9.03;;
46589;SDS011;32313;48.722;9.362;2023-04-28T02:32:32;11.53;;;8.87;;
46589;SDS011;32313;48.722;9.362;2023-04-28T02:34:57;10.10;;;9.10;;
46589;SDS011;32313;48.722;9.362;2023-04-28T02:37:24;10.30;;;8.83;;
46589;SDS011;32313;48.722;9.362;2023-04-28T02:39:50;10.17;;;8.97;;
46589;SDS011;32313;48.722;9.362;2023-04-28T02:42:16;9.60;;;8.13;;
46589;SDS011;32313;48.722;9.362;2023-04-28T02:44:42;10.10;;;9.00;;
46589;SDS011;32313;48.722;9.362;2023-04-28T02:47:07;9.80;;;8.80;;
46589;SDS011;32313;48.722;9.362;2023-04-28T02:49:33;10.77;;;8.47;;
46589;SDS011;32313;48.722;9.362;2023-04-28T02:51:59;8.53;;;7.73;;
46589;SDS011;32313;48.722;9.362;2023-04-28T02:54:25;10.40;;;9.40;;
46589;SDS011;32313;48.722;9.362;2023-04-28T02:56:55;9.97;;;8.97;;
46589;SDS011;32313;48.722;9.362;2023-04-28T02:59:22;9.80;;;8.90;;
46589;SDS011;32313;48.722;9.362;2023-04-28T03:01:48;8.77;;;8.07;;
46589;SDS011;32313;48.722;9.362;2023-04-28T03:04:14;9.43;;;8.63;;
46589;SDS011;32313;48.722;9.362;2023-04-28T03:06:40;10.10;;;9.13;;
46589;SDS011;32313;48.722;9.362;2023-04-28T03:09:06;10.23;;;9.03;;
46589;SDS011;32313;48.722;9.362;2023-04-28T03:11:33;10.67;;;9.67;;
46589;SDS011;32313;48.722;9.362;2023-04-28T03:13:59;11.00;;;9.90;;
46589;SDS011;32313;48.722;9.362;2023-04-28T03:16:25;10.37;;;9.43;;
46589;SDS011;32313;48.722;9.362;2023-04-28T03:18:51;11.17;;;10.17;;
46589;SDS011;32313;48.722;9.362;2023-04-28T03:21:18;10.33;;;9.37;;
46589;SDS011;32313;48.722;9.362;2023-04-28T03:23:43;10.20;;;9.30;;
46589;SDS011;32313;48.722;9.362;2023-04-28T03:26:09;11.00;;;9.70;;
46589;SDS011;32313;48.722;9.362;2023-04-28T03:28:35;12.57;;;10.83;;
46589;SDS011;32313;48.722;9.362;2023-04-28T03:31:01;12.50;;;11.00;;
46589;SDS011;32313;48.722;9.362;2023-04-28T03:33:27;13.70;;;10.70;;
46589;SDS011;32313;48.722;9.362;2023-04-28T03:35:53;10.90;;;9.90;;
46589;SDS011;32313;48.722;9.362;2023-04-28T03:38:19;11.73;;;10.53;;
46589;SDS011;32313;48.722;9.362;2023-04-28T03:40:46;11.07;;;10.13;;
46589;SDS011;32313;48.722;9.362;2023-04-28T03:43:12;10.87;;;9.77;;
46589;SDS011;32313;48.722;9.362;2023-04-28T03:45:44;11.83;;;10.30;;
46589;SDS011;32313;48.722;9.362;2023-04-28T03:48:10;10.53;;;9.53;;
46589;SDS011;32313;48.722;9.362;2023-04-28T03:50:36;11.63;;;10.37;;
46589;SDS011;32313;48.722;9.362;2023-04-28T03:53:06;12.33;;;11.23;;
46589;SDS011;32313;48.722;9.362;2023-04-28T03:55:32;10.47;;;9.40;;
46589;SDS011;32313;48.722;9.362;2023-04-28T03:57:57;12.37;;;11.03;;
46589;SDS011;32313;48.722;9.362;2023-04-28T04:00:23;10.77;;;9.70;;
46589;SDS011;32313;48.722;9.362;2023-04-28T04:02:52;11.17;;;10.13;;
46589;SDS011;32313;48.722;9.362;2023-04-28T04:05:18;12.37;;;11.17;;
46589;SDS011;32313;48.722;9.362;2023-04-28T04:07:43;11.93;;;10.73;;
46589;SDS011;32313;48.722;9.362;2023-04-28T04:10:09;10.70;;;9.70;;
46589;SDS011;32313;48.722;9.362;2023-04-28T04:12:38;11.97;;;10.73;;
46589;SDS011;32313;48.722;9.362;2023-04-28T04:15:04;10.70;;;9.80;;
46589;SDS011;32313;48.722;9.362;2023-04-28T04:17:30;11.37;;;10.37;;
46589;SDS011;32313;48.722;9.362;2023-04-28T04:19:56;11.97;;;10.67;;
46589;SDS011;32313;48.722;9.362;2023-04-28T04:22:22;12.83;;;10.33;;
46589;SDS011;32313;48.722;9.362;2023-04-28T04:24:48;11.73;;;10.63;;
46589;SDS011;32313;48.722;9.362;2023-04-28T04:27:13;13.20;;;10.73;;
46589;SDS011;32313;48.722;9.362;2023-04-28T04:29:40;12.60;;;11.33;;
46589;SDS011;32313;48.722;9.362;2023-04-28T04:32:10;12.57;;;11.37;;
46589;SDS011;32313;48.722;9.362;2023-04-28T04:34:37;11.53;;;10.43;;
46589;SDS011;32313;48.722;9.362;2023-04-28T04:37:03;12.83;;;10.57;;
46589;SDS011;32313;48.722;9.362;2023-04-28T04:39:29;11.77;;;10.47;;
46589;SDS011;32313;48.722;9.362;2023-04-28T04:41:55;12.20;;;10.10;;
46589;SDS011;32313;48.722;9.362;2023-04-28T04:44:50;11.50;;;10.37;;
46589;SDS011;32313;48.722;9.362;2023-04-28T04:47:25;11.70;;;10.60;;
46589;SDS011;32313;48.722;9.362;2023-04-28T04:49:52;10.90;;;9.90;;
46589;SDS011;32313;48.722;9.362;2023-04-28T04:52:18;11.43;;;10.43;;
46589;SDS011;32313;48.722;9.362;2023-04-28T04:54:44;12.00;;;10.70;;
46589;SDS011;32313;48.722;9.362;2023-04-28T04:57:11;11.50;;;10.40;;
46589;SDS011;32313;48.722;9.362;2023-04-28T05:00:04;11.93;;;10.83;;
46589;SDS011;32313;48.722;9.362;2023-04-28T05:02:30;13.23;;;11.90;;
46589;SDS011;32313;48.722;9.362;2023-04-28T05:04:56;15.30;;;11.50;;
46589;SDS011;32313;48.722;9.362;2023-04-28T05:07:22;13.73;;;11.97;;
46589;SDS011;32313;48.722;9.362;2023-04-28T05:09:47;15.10;;;13.60;;
46589;SDS011;32313;48.722;9.362;2023-04-28T05:12:13;15.47;;;12.73;;
46589;SDS011;32313;48.722;9.362;2023-04-28T05:14:39;17.43;;;13.87;;
46589;SDS011;32313;48.722;9.362;2023-04-28T05:17:05;16.33;;;12.63;;
46589;SDS011;32313;48.722;9.362;2023-04-28T05:19:35;20.13;;;15.83;;
46589;SDS011;32313;48.722;9.362;2023-04-28T05:22:01;16.50;;;14.47;;
46589;SDS011;32313;48.722;9.362;2023-04-28T05:24:27;17.20;;;15.50;;
46589;SDS011;32313;48.722;9.362;2023-04-28T05:26:53;18.97;;;15.53;;
46589;SDS011;32313;48.722;9.362;2023-04-28T05:29:22;17.00;;;14.73;;
46589;SDS011;32313;48.722;9.362;2023-04-28T05:31:47;16.23;;;13.80;;
46589;SDS011;32313;48.722;9.362;2023-04-28T05:34:13;16.67;;;13.53;;
46589;SDS011;32313;48.722;9.362;2023-04-28T05:36:39;18.70;;;15.20;;
46589;SDS011;32313;48.722;9.362;2023-04-28T05:39:07;18.37;;;14.90;;
46589;SDS011;32313;48.722;9.362;2023-04-28T05:41:36;20.13;;;16.80;;
46589;SDS011;32313;48.722;9.362;2023-04-28T05:44:02;22.07;;;16.77;;
46589;SDS011;32313;48.722;9.362;2023-04-28T05:46:27;18.20;;;15.70;;
46589;SDS011;32313;48.722;9.362;2023-04-28T05:48:53;20.57;;;16.17;;
46589;SDS011;32313;48.722;9.362;2023-04-28T05:51:20;17.50;;;14.87;;
46589;SDS011;32313;48.722;9.362;2023-04-28T05:53:46;21.63;;;16.57;;
46589;SDS011;32313;48.722;9.362;2023-04-28T05:56:14;17.53;;;15.73;;
46589;SDS011;32313;48.722;9.362;2023-04-28T05:58:41;19.07;;;16.30;;
46589;SDS011;32313;48.722;9.362;2023-04-28T06:01:09;18.23;;;15.93;;
46589;SDS011;32313;48.722;9.362;2023-04-28T06:03:37;15.90;;;14.03;;
46589;SDS011;32313;48.722;9.362;2023-04-28T06:06:06;13.23;;;11.80;;
46589;SDS011;32313;48.722;9.362;2023-04-28T06:08:32;15.80;;;13.37;;
46589;SDS011;32313;48.722;9.362;2023-04-28T06:10:58;14.57;;;13.17;;
46589;SDS011;32313;48.722;9.362;2023-04-28T06:13:23;15.43;;;13.80;;
46589;SDS011;32313;48.722;9.362;2023-04-28T06:15:49;13.33;;;11.93;;
46589;SDS011;32313;48.722;9.362;2023-04-28T06:18:15;13.80;;;12.43;;
46589;SDS011;32313;48.722;9.362;2023-04-28T06:20:41;18.47;;;13.40;;
46589;SDS011;32313;48.722;9.362;2023-04-28T06:23:07;17.73;;;11.80;;
46589;SDS011;32313;48.722;9.362;2023-04-28T06:25:34;15.00;;;13.37;;
46589;SDS011;32313;48.722;9.362;2023-04-28T06:28:01;19.90;;;14.57;;
46589;SDS011;32313;48.722;9.362;2023-04-28T06:30:26;19.10;;;14.63;;
46589;SDS011;32313;48.722;9.362;2023-04-28T06:32:53;16.90;;;14.00;;
46589;SDS011;32313;48.722;9.362;2023-04-28T06:35:21;15.87;;;12.87;;
46589;SDS011;32313;48.722;9.362;2023-04-28T06:37:47;14.93;;;13.53;;
46589;SDS011;32313;48.722;9.362;2023-04-28T06:40:13;12.40;;;11.20;;
46589;SDS011;32313;48.722;9.362;2023-04-28T06:42:45;15.37;;;13.40;;
46589;SDS011;32313;48.722;9.362;2023-04-28T06:45:17;16.43;;;14.73;;
46589;SDS011;32313;48.722;9.362;2023-04-28T06:47:43;21.30;;;16.03;;
46589;SDS011;32313;48.722;9.362;2023-04-28T06:50:09;19.67;;;16.63;;
46589;SDS011;32313;48.722;9.362;2023-04-28T06:52:35;18.77;;;14.97;;
46589;SDS011;32313;48.722;9.362;2023-04-28T06:55:04;21.60;;;18.10;;
46589;SDS011;32313;48.722;9.362;2023-04-28T06:57:36;19.13;;;17.03;;
46589;SDS011;32313;48.722;9.362;2023-04-28T07:00:02;18.97;;;15.27;;
46589;SDS011;32313;48.722;9.362;2023-04-28T07:02:34;17.67;;;15.83;;
46589;SDS011;32313;48.722;9.362;2023-04-28T07:05:01;19.60;;;17.50;;
46589;SDS011;32313;48.722;9.362;2023-04-28T07:07:27;17.53;;;15.27;;
46589;SDS011;32313;48.722;9.362;2023-04-28T07:09:53;18.20;;;16.00;;
46589;SDS011;32313;48.722;9.362;2023-04-28T07:12:19;17.20;;;15.57;;
46589;SDS011;32313;48.722;9.362;2023-04-28T07:14:45;16.03;;;14.30;;
46589;SDS011;32313;48.722;9.362;2023-04-28T07:17:11;15.33;;;13.67;;
46589;SDS011;32313;48.722;9.362;2023-04-28T07:19:37;16.43;;;14.10;;
46589;SDS011;32313;48.722;9.362;2023-04-28T07:22:03;17.73;;;15.73;;
46589;SDS011;32313;48.722;9.362;2023-04-28T07:24:28;21.07;;;15.80;;
46589;SDS011;32313;48.722;9.362;2023-04-28T07:26:54;20.43;;;16.87;;
46589;SDS011;32313;48.722;9.362;2023-04-28T07:29:21;19.20;;;17.23;;
46589;SDS011;32313;48.722;9.362;2023-04-28T07:31:47;23.70;;;19.57;;
46589;SDS011;32313;48.722;9.362;2023-04-28T07:34:13;18.63;;;16.67;;
46589;SDS011;32313;48.722;9.362;2023-04-28T07:36:39;17.57;;;15.83;;
46589;SDS011;32313;48.722;9.362;2023-04-28T07:39:05;19.80;;;16.40;;
46589;SDS011;32313;48.722;9.362;2023-04-28T07:41:35;19.30;;;16.97;;
46589;SDS011;32313;48.722;9.362;2023-04-28T07:44:04;20.03;;;17.97;;
46589;SDS011;32313;48.722;9.362;2023-04-28T07:46:31;19.73;;;17.47;;
46589;SDS011;32313;48.722;9.362;2023-04-28T07:48:57;21.47;;;17.17;;
46589;SDS011;32313;48.722;9.362;2023-04-28T07:51:23;20.53;;;18.33;;
46589;SDS011;32313;48.722;9.362;2023-04-28T07:53:48;18.17;;;16.27;;
46589;SDS011;32313;48.722;9.362;2023-04-28T07:56:14;18.27;;;16.33;;
46589;SDS011;32313;48.722;9.362;2023-04-28T07:58:40;22.00;;;17.53;;
46589;SDS011;32313;48.722;9.362;2023-04-28T08:01:06;18.37;;;16.40;;
46589;SDS011;32313;48.722;9.362;2023-04-28T08:03:32;31.17;;;20.97;;
46589;SDS011;32313;48.722;9.362;2023-04-28T08:05:57;21.37;;;18.03;;
46589;SDS011;32313;48.722;9.362;2023-04-28T08:08:23;19.57;;;17.53;;
46589;SDS011;32313;48.722;9.362;2023-04-28T08:10:50;22.23;;;19.60;;
46589;SDS011;32313;48.722;9.362;2023-04-28T08:13:16;25.77;;;20.33;;
46589;SDS011;32313;48.722;9.362;2023-04-28T08:15:42;29.43;;;21.00;;
46589;SDS011;32313;48.722;9.362;2023-04-28T08:18:08;27.57;;;20.93;;
46589;SDS011;32313;48.722;9.362;2023-04-28T08:20:33;34.03;;;22.80;;
46589;SDS011;32313;48.722;9.362;2023-04-28T08:22:59;30.93;;;22.43;;
46589;SDS011;32313;48.722;9.362;2023-04-28T08:25:25;31.50;;;24.83;;
46589;SDS011;32313;48.722;9.362;2023-04-28T08:27:51;42.47;;;25.30;;
46589;SDS011;32313;48.722;9.362;2023-04-28T08:30:16;31.50;;;20.90;;
46589;SDS011;32313;48.722;9.362;2023-04-28T08:32:42;36.03;;;23.60;;
46589;SDS011;32313;48.722;9.362;2023-04-28T08:35:08;31.20;;;20.67;;
46589;SDS011;32313;48.722;9.362;2023-04-28T08:37:34;47.03;;;27.13;;
46589;SDS011;32313;48.722;9.362;2023-04-28T08:40:00;38.97;;;27.00;;
46589;SDS011;32313;48.722;9.362;2023-04-28T08:42:29;40.60;;;25.87;;
46589;SDS011;32313;48.722;9.362;2023-04-28T08:44:56;34.50;;;24.57;;
46589;SDS011;32313;48.722;9.362;2023-04-28T08:47:32;38.57;;;27.03;;
46589;SDS011;32313;48.722;9.362;2023-04-28T08:50:06;46.53;;;27.93;;
46589;SDS011;32313;48.722;9.362;2023-04-28T08:52:33;39.60;;;26.37;;
46589;SDS011;32313;48.722;9.362;2023-04-28T08:55:00;27.40;;;21.67;;
46589;SDS011;32313;48.722;9.362;2023-04-28T08:57:37;40.27;;;28.73;;
46589;SDS011;32313;48.722;9.362;2023-04-28T09:00:04;29.77;;;23.77;;
46589;SDS011;32313;48.722;9.362;2023-04-28T09:02:30;31.60;;;23.63;;
46589;SDS011;32313;48.722;9.362;2023-04-28T09:04:56;25.10;;;21.43;;
46589;SDS011;32313;48.722;9.362;2023-04-28T09:07:22;25.80;;;20.17;;
46589;SDS011;32313;48.722;9.362;2023-04-28T09:09:47;31.37;;;22.73;;
46589;SDS011;32313;48.722;9.362;2023-04-28T09:12:13;26.70;;;21.73;;
46589;SDS011;32313;48.722;9.362;2023-04-28T09:14:39;26.23;;;21.77;;
46589;SDS011;32313;48.722;9.362;2023-04-28T09:17:09;30.53;;;23.13;;
46589;SDS011;32313;48.722;9.362;2023-04-28T09:19:38;29.90;;;22.50;;
46589;SDS011;32313;48.722;9.362;2023-04-28T09:22:07;27.23;;;21.97;;
46589;SDS011;32313;48.722;9.362;2023-04-28T09:24:39;29.80;;;22.60;;
46589;SDS011;32313;48.722;9.362;2023-04-28T09:27:07;33.03;;;23.97;;
46589;SDS011;32313;48.722;9.362;2023-04-28T09:29:36;21.13;;;18.07;;
46589;SDS011;32313;48.722;9.362;2023-04-28T09:32:13;34.97;;;26.77;;
46589;SDS011;32313;48.722;9.362;2023-04-28T09:37:16;33.70;;;25.07;;
46589;SDS011;32313;48.722;9.362;2023-04-28T09:39:48;62.17;;;27.50;;
46589;SDS011;32313;48.722;9.362;2023-04-28T09:42:34;61.73;;;30.60;;
46589;SDS011;32313;48.722;9.362;2023-04-28T09:45:00;24.80;;;22.10;;
46589;SDS011;32313;48.722;9.362;2023-04-28T09:47:28;43.17;;;28.37;;
46589;SDS011;32313;48.722;9.362;2023-04-28T09:49:56;38.33;;;26.53;;
46589;SDS011;32313;48.722;9.362;2023-04-28T09:52:23;23.73;;;19.73;;
46589;SDS011;32313;48.722;9.362;2023-04-28T09:54:50;47.17;;;25.67;;
46589;SDS011;32313;48.722;9.362;2023-04-28T09:57:17;48.27;;;23.10;;
46589;SDS011;32313;48.722;9.362;2023-04-28T09:59:47;192.13;;;39.47;;
46589;SDS011;32313;48.722;9.362;2023-04-28T10:02:14;48.03;;;24.37;;
46589;SDS011;32313;48.722;9.362;2023-04-28T10:04:44;495.07;;;71.07;;
46589;SDS011;32313;48.722;9.362;2023-04-28T10:07:12;96.90;;;28.00;;
46589;SDS011;32313;48.722;9.362;2023-04-28T10:09:39;30.73;;;21.57;;
46589;SDS011;32313;48.722;9.362;2023-04-28T10:12:14;305.63;;;47.70;;
46589;SDS011;32313;48.722;9.362;2023-04-28T10:14:44;23.50;;;18.40;;
46589;SDS011;32313;48.722;9.362;2023-04-28T10:17:14;25.07;;;21.03;;
46589;SDS011;32313;48.722;9.362;2023-04-28T10:19:44;22.20;;;19.67;;
46589;SDS011;32313;48.722;9.362;2023-04-28T10:22:23;18.07;;;15.37;;
46589;SDS011;32313;48.722;9.362;2023-04-28T10:25:27;15.47;;;13.90;;
46589;SDS011;32313;48.722;9.362;2023-04-28T10:27:56;14.70;;;12.37;;
46589;SDS011;32313;48.722;9.362;2023-04-28T10:30:24;10.43;;;9.43;;
46589;SDS011;32313;48.722;9.362;2023-04-28T10:40:50;10.90;;;9.83;;
46589;SDS011;32313;48.722;9.362;2023-04-28T11:06:18;9.70;;;8.70;;
46589;SDS011;32313;48.722;9.362;2023-04-28T11:08:45;11.23;;;8.40;;
46589;SDS011;32313;48.722;9.362;2023-04-28T11:13:44;7.17;;;6.47;;
46589;SDS011;32313;48.722;9.362;2023-04-28T11:16:15;7.17;;;6.40;;
46589;SDS011;32313;48.722;9.362;2023-04-28T11:18:55;8.47;;;5.47;;
46589;SDS011;32313;48.722;9.362;2023-04-28T11:21:23;3.80;;;3.50;;
46589;SDS011;32313;48.722;9.362;2023-04-28T11:23:52;2.60;;;2.40;;
46589;SDS011;32313;48.722;9.362;2023-04-28T11:26:18;2.30;;;2.10;;
46589;SDS011;32313;48.722;9.362;2023-04-28T11:28:52;2.47;;;2.00;;
46589;SDS011;32313;48.722;9.362;2023-04-28T11:31:19;1.97;;;1.87;;
46589;SDS011;32313;48.722;9.362;2023-04-28T11:36:40;2.40;;;2.20;;
46589;SDS011;32313;48.722;9.362;2023-04-28T11:39:10;3.83;;;2.33;;
46589;SDS011;32313;48.722;9.362;2023-04-28T11:41:37;2.33;;;2.23;;
46589;SDS011;32313;48.722;9.362;2023-04-28T11:44:14;2.13;;;1.93;;
46589;SDS011;32313;48.722;9.362;2023-04-28T11:49:20;1.90;;;1.80;;
46589;SDS011;32313;48.722;9.362;2023-04-28T11:51:49;2.27;;;1.97;;
46589;SDS011;32313;48.722;9.362;2023-04-28T11:54:26;3.23;;;2.07;;
46589;SDS011;32313;48.722;9.362;2023-04-28T11:56:53;1.80;;;1.70;;
46589;SDS011;32313;48.722;9.362;2023-04-28T11:59:28;2.47;;;1.70;;
46589;SDS011;32313;48.722;9.362;2023-04-28T12:02:00;2.70;;;2.47;;
46589;SDS011;32313;48.722;9.362;2023-04-28T12:04:35;2.00;;;1.90;;
46589;SDS011;32313;48.722;9.362;2023-04-28T12:09:29;2.13;;;2.00;;
46589;SDS011;32313;48.722;9.362;2023-04-28T12:11:55;1.93;;;1.80;;
46589;SDS011;32313;48.722;9.362;2023-04-28T12:14:23;2.30;;;1.43;;
46589;SDS011;32313;48.722;9.362;2023-04-28T12:16:49;1.80;;;1.70;;
46589;SDS011;32313;48.722;9.362;2023-04-28T12:19:16;2.60;;;1.83;;
46589;SDS011;32313;48.722;9.362;2023-04-28T12:21:42;4.67;;;2.00;;
46589;SDS011;32313;48.722;9.362;2023-04-28T12:24:14;3.73;;;1.80;;
46589;SDS011;32313;48.722;9.362;2023-04-28T12:26:47;2.13;;;1.50;;
46589;SDS011;32313;48.722;9.362;2023-04-28T12:32:01;2.00;;;1.90;;
46589;SDS011;32313;48.722;9.362;2023-04-28T12:34:27;1.90;;;1.80;;
46589;SDS011;32313;48.722;9.362;2023-04-28T12:36:53;2.00;;;1.80;;
46589;SDS011;32313;48.722;9.362;2023-04-28T12:39:19;2.00;;;1.80;;
46589;SDS011;32313;48.722;9.362;2023-04-28T12:41:47;1.93;;;1.80;;
46589;SDS011;32313;48.722;9.362;2023-04-28T12:44:12;1.73;;;1.63;;
46589;SDS011;32313;48.722;9.362;2023-04-28T12:46:40;2.10;;;1.60;;
46589;SDS011;32313;48.722;9.362;2023-04-28T12:49:05;1.63;;;1.50;;
46589;SDS011;32313;48.722;9.362;2023-04-28T12:51:31;3.57;;;1.80;;
46589;SDS011;32313;48.722;9.362;2023-04-28T12:53:59;2.43;;;1.60;;
46589;SDS011;32313;48.722;9.362;2023-04-28T12:56:25;2.67;;;1.47;;
46589;SDS011;32313;48.722;9.362;2023-04-28T12:58:51;2.30;;;1.50;;
46589;SDS011;32313;48.722;9.362;2023-04-28T13:01:17;1.40;;;1.30;;
46589;SDS011;32313;48.722;9.362;2023-04-28T13:03:43;1.60;;;1.50;;
46589;SDS011;32313;48.722;9.362;2023-04-28T13:06:09;2.60;;;1.50;;
46589;SDS011;32313;48.722;9.362;2023-04-28T13:08:35;1.20;;;1.20;;
46589;SDS011;32313;48.722;9.362;2023-04-28T13:11:01;1.60;;;1.50;;
46589;SDS011;32313;48.722;9.362;2023-04-28T13:13:29;1.47;;;1.40;;
46589;SDS011;32313;48.722;9.362;2023-04-28T13:15:55;1.47;;;1.37;;
46589;SDS011;32313;48.722;9.362;2023-04-28T13:18:20;1.57;;;1.47;;
46589;SDS011;32313;48.722;9.362;2023-04-28T13:20:47;1.83;;;1.30;;
46589;SDS011;32313;48.722;9.362;2023-04-28T13:23:13;1.70;;;1.60;;
46589;SDS011;32313;48.722;9.362;2023-04-28T13:25:39;1.83;;;1.60;;
46589;SDS011;32313;48.722;9.362;2023-04-28T13:28:05;3.57;;;1.60;;
46589;SDS011;32313;48.722;9.362;2023-04-28T13:30:30;1.87;;;1.70;;
46589;SDS011;32313;48.722;9.362;2023-04-28T13:32:56;2.07;;;1.70;;
46589;SDS011;32313;48.722;9.362;2023-04-28T13:35:23;2.70;;;1.67;;
46589;SDS011;32313;48.722;9.362;2023-04-28T13:37:48;1.60;;;1.43;;
46589;SDS011;32313;48.722;9.362;2023-04-28T13:40:14;1.60;;;1.50;;
46589;SDS011;32313;48.722;9.362;2023-04-28T13:42:40;1.60;;;1.50;;
46589;SDS011;32313;48.722;9.362;2023-04-28T13:45:06;1.73;;;1.63;;
46589;SDS011;32313;48.722;9.362;2023-04-28T13:47:32;1.50;;;1.40;;
46589;SDS011;32313;48.722;9.362;2023-04-28T13:49:57;1.50;;;1.40;;
46589;SDS011;32313;48.722;9.362;2023-04-28T13:52:24;1.23;;;1.13;;
46589;SDS011;32313;48.722;9.362;2023-04-28T13:54:50;2.37;;;1.40;;
46589;SDS011;32313;48.722;9.362;2023-04-28T13:57:16;1.37;;;1.27;;
46589;SDS011;32313;48.722;9.362;2023-04-28T13:59:42;1.57;;;1.47;;
46589;SDS011;32313;48.722;9.362;2023-04-28T14:02:08;2.10;;;1.40;;
46589;SDS011;32313;48.722;9.362;2023-04-28T14:04:35;1.30;;;1.20;;
46589;SDS011;32313;48.722;9.362;2023-04-28T14:07:01;2.57;;;1.73;;
46589;SDS011;32313;48.722;9.362;2023-04-28T14:09:27;1.87;;;1.63;;
46589;SDS011;32313;48.722;9.362;2023-04-28T14:11:53;2.07;;;1.40;;
46589;SDS011;32313;48.722;9.362;2023-04-28T14:14:22;2.93;;;1.67;;
46589;SDS011;32313;48.722;9.362;2023-04-28T14:16:48;2.00;;;1.50;;
46589;SDS011;32313;48.722;9.362;2023-04-28T14:19:13;1.30;;;1.30;;
46589;SDS011;32313;48.722;9.362;2023-04-28T14:21:41;1.70;;;1.60;;
46589;SDS011;32313;48.722;9.362;2023-04-28T14:24:07;1.50;;;1.40;;
46589;SDS011;32313;48.722;9.362;2023-04-28T14:26:34;2.70;;;1.70;;
46589;SDS011;32313;48.722;9.362;2023-04-28T14:29:00;2.83;;;2.03;;
46589;SDS011;32313;48.722;9.362;2023-04-28T14:31:26;3.47;;;2.00;;
46589;SDS011;32313;48.722;9.362;2023-04-28T14:33:52;1.70;;;1.60;;
46589;SDS011;32313;48.722;9.362;2023-04-28T14:36:18;2.20;;;1.77;;
46589;SDS011;32313;48.722;9.362;2023-04-28T14:38:44;7.33;;;2.00;;
46589;SDS011;32313;48.722;9.362;2023-04-28T14:41:10;3.87;;;2.10;;
46589;SDS011;32313;48.722;9.362;2023-04-28T14:43:35;4.73;;;2.20;;
46589;SDS011;32313;48.722;9.362;2023-04-28T14:46:02;3.63;;;2.30;;
46589;SDS011;32313;48.722;9.362;2023-04-28T14:48:28;3.50;;;3.00;;
46589;SDS011;32313;48.722;9.362;2023-04-28T14:50:56;2.77;;;2.57;;
46589;SDS011;32313;48.722;9.362;2023-04-28T14:53:22;2.57;;;2.37;;
46589;SDS011;32313;48.722;9.362;2023-04-28T14:55:48;2.67;;;1.77;;
46589;SDS011;32313;48.722;9.362;2023-04-28T14:58:14;2.23;;;1.97;;
46589;SDS011;32313;48.722;9.362;2023-04-28T15:00:40;2.63;;;1.83;;
46589;SDS011;32313;48.722;9.362;2023-04-28T15:03:06;2.80;;;1.77;;
46589;SDS011;32313;48.722;9.362;2023-04-28T15:05:32;3.63;;;1.57;;
46589;SDS011;32313;48.722;9.362;2023-04-28T15:07:57;1.50;;;1.40;;
46589;SDS011;32313;48.722;9.362;2023-04-28T15:10:23;2.40;;;1.70;;
46589;SDS011;32313;48.722;9.362;2023-04-28T15:12:50;1.50;;;1.40;;
46589;SDS011;32313;48.722;9.362;2023-04-28T15:15:16;1.63;;;1.47;;
46589;SDS011;32313;48.722;9.362;2023-04-28T15:17:41;2.30;;;1.50;;
46589;SDS011;32313;48.722;9.362;2023-04-28T15:20:07;1.63;;;1.53;;